Time;durP1;ratioP1;P1;durP2;ratioP2;P2;SDS_P1;SDS_P2;PMS_P1;PMS_P2;Temp;Humidity;BMP_temperature;BMP_pressure;BME280_temperature;BME280_humidity;BME280_pressure;Samples;Min_cycle;Max_cycle;Signal;HPM_P1;HPM_P2
2022/01/20 00:02:06;;;;;;;19.10;9.83;;;;;;;0.76;59.37;96943.19;1740154;82;27467;-86
2022/01/20 00:04:48;;;;;;;15.60;8.83;;;;;;;0.78;59.31;96956.31;1721091;83;26230;-88
2022/01/20 00:26:06;;;;;;;21.40;10.95;;;;;;;0.92;59.80;96943.73;1721188;83;25769;-86
2022/01/20 00:28:44;;;;;;;21.52;11.33;;;;;;;0.96;60.06;96955.22;1698401;82;27412;-88
2022/01/20 00:31:28;;;;;;;23.15;11.97;;;;;;;1.00;60.13;96955.20;1740343;81;25855;-85
2022/01/20 00:33:44;;;;;;;21.35;12.28;;;;;;;1.01;60.13;96940.92;1714923;83;25730;-86
2022/01/20 00:38:39;;;;;;;23.47;9.60;;;;;;;1.06;60.17;96941.77;1731402;82;25760;-86
2022/01/20 00:41:14;;;;;;;19.45;10.05;;;;;;;1.07;60.23;96939.45;1731373;82;27610;-88
2022/01/20 00:43:35;;;;;;;18.35;9.78;;;;;;;1.09;60.46;96948.07;1729787;82;25785;-85
2022/01/20 00:46:02;;;;;;;24.12;10.82;;;;;;;1.12;60.59;96945.59;1711748;83;25716;-88
2022/01/20 00:48:28;;;;;;;19.12;10.45;;;;;;;1.15;60.60;96958.56;1721242;83;25756;-88
2022/01/20 00:50:55;;;;;;;16.45;10.13;;;;;;;1.18;60.81;96956.91;1699128;84;25738;-86
2022/01/20 00:53:22;;;;;;;19.95;10.18;;;;;;;1.19;60.95;96955.92;1741287;82;26917;-87
2022/01/20 00:55:48;;;;;;;17.30;9.63;;;;;;;1.22;61.08;96936.95;1721112;83;25785;-86
2022/01/20 00:58:15;;;;;;;19.85;9.58;;;;;;;1.25;61.04;96932.16;1711763;82;25717;-89
2022/01/20 01:00:41;;;;;;;18.32;10.28;;;;;;;1.28;61.04;96935.82;1711656;83;25735;-87
2022/01/20 01:03:08;;;;;;;18.57;10.18;;;;;;;1.31;60.98;96934.66;1721305;83;25781;-86
2022/01/20 01:05:42;;;;;;;18.62;10.03;;;;;;;1.33;61.00;96944.61;1699132;84;27861;-85
2022/01/20 01:08:05;;;;;;;19.15;9.45;;;;;;;1.34;61.14;96939.63;1740524;82;25660;-90
2022/01/20 01:10:34;;;;;;;19.25;9.98;;;;;;;1.37;61.11;96932.66;1741512;82;25658;-85
2022/01/20 01:13:13;;;;;;;15.72;9.25;;;;;;;1.38;61.30;96932.50;1721209;83;25919;-86
2022/01/20 01:15:38;;;;;;;19.30;11.00;;;;;;;1.42;61.23;96927.69;1707683;83;25716;-87
2022/01/20 01:23:36;;;;;;;16.97;10.10;;;;;;;1.49;61.42;96931.33;1711197;82;26603;-85
2022/01/20 01:26:06;;;;;;;18.32;9.48;;;;;;;1.52;61.53;96927.02;1717575;83;25835;-86
2022/01/20 01:28:33;;;;;;;16.32;9.95;;;;;;;1.56;61.54;96923.53;1711220;82;25780;-87
2022/01/20 01:33:29;;;;;;;17.60;10.60;;;;;;;1.59;61.44;96909.88;1717682;83;25799;-86
2022/01/20 01:35:57;;;;;;;17.65;10.75;;;;;;;1.58;61.56;96911.70;1717324;83;25799;-87
2022/01/20 01:38:38;;;;;;;21.37;10.55;;;;;;;1.61;61.54;96915.86;1717645;83;25746;-86
2022/01/20 01:41:11;;;;;;;17.25;10.40;;;;;;;1.63;61.49;96910.72;1717914;83;25276;-86
2022/01/20 01:43:46;;;;;;;20.43;9.95;;;;;;;1.65;61.57;96896.75;1717825;83;27470;-86
2022/01/20 01:46:14;;;;;;;18.30;8.83;;;;;;;1.67;61.58;96893.92;1717694;83;26062;-86
2022/01/20 01:48:43;;;;;;;16.57;8.98;;;;;;;1.67;61.50;96881.45;1717786;83;25890;-87
2022/01/20 01:51:11;;;;;;;15.15;9.50;;;;;;;1.65;61.77;96871.48;1711095;83;25714;-89
2022/01/20 01:53:39;;;;;;;15.90;9.18;;;;;;;1.63;61.79;96880.62;1711258;83;25827;-87
2022/01/20 01:56:07;;;;;;;20.77;10.03;;;;;;;1.59;62.10;96864.16;1711202;83;27498;-87
2022/01/20 01:58:34;;;;;;;15.48;9.65;;;;;;;1.57;62.32;96853.37;1717725;83;26060;-86
2022/01/20 02:01:02;;;;;;;16.35;9.50;;;;;;;1.52;62.30;96845.89;1717787;83;25753;-88
2022/01/20 02:03:30;;;;;;;19.10;10.03;;;;;;;1.48;62.79;96836.58;1711136;83;25730;-88
2022/01/20 02:08:36;;;;;;;16.40;9.48;;;;;;;1.39;63.26;96844.24;1711223;83;28088;-86
2022/01/20 02:19:12;;;;;;;18.67;9.75;;;;;;;1.30;64.02;96827.97;1734247;82;25845;-86
2022/01/20 02:21:51;;;;;;;17.75;9.93;;;;;;;1.28;64.56;96828.63;1707119;82;28012;-87
2022/01/20 02:24:19;;;;;;;17.90;9.13;;;;;;;1.26;64.28;96830.63;1706451;82;25826;-86
2022/01/20 02:26:46;;;;;;;19.48;10.50;;;;;;;1.26;64.68;96823.97;1707057;82;25819;-87
2022/01/20 02:29:14;;;;;;;16.23;9.88;;;;;;;1.28;64.79;96824.64;1770838;77;25754;-85
2022/01/20 02:31:41;;;;;;;19.75;9.98;;;;;;;1.28;64.63;96824.64;1813331;77;25810;-85
2022/01/20 02:34:14;;;;;;;17.05;10.63;;;;;;;1.30;65.05;96801.38;1787742;79;27447;-85
2022/01/20 02:36:45;;;;;;;17.92;10.10;;;;;;;1.31;64.97;96800.39;1766067;80;25697;-83
2022/01/20 02:39:28;;;;;;;20.45;9.98;;;;;;;1.29;65.38;96796.56;1774088;78;25746;-85
2022/01/20 02:47:14;;;;;;;26.80;10.18;;;;;;;1.36;65.74;96786.06;1734176;81;28020;-84
2022/01/20 02:49:41;;;;;;;14.10;9.13;;;;;;;1.39;65.74;96791.05;1734288;82;25722;-84
2022/01/20 02:52:08;;;;;;;18.07;9.33;;;;;;;1.40;65.45;96784.73;1781134;78;25738;-86
2022/01/20 02:54:36;;;;;;;14.38;9.13;;;;;;;1.39;65.60;96787.06;1798026;78;26853;-84
2022/01/20 02:57:05;;;;;;;18.98;9.95;;;;;;;1.37;65.51;96776.59;1797890;78;25690;-85
2022/01/20 02:59:36;;;;;;;16.55;10.08;;;;;;;1.39;65.62;96768.45;1797786;79;27425;-85
2022/01/20 03:02:06;;;;;;;14.33;8.98;;;;;;;1.35;65.59;96766.63;1791676;79;25215;-84
2022/01/20 03:04:33;;;;;;;15.40;9.20;;;;;;;1.36;65.92;96770.11;1797939;78;25251;-88
2022/01/20 03:07:00;;;;;;;15.70;9.93;;;;;;;1.37;65.67;96755.81;1791728;79;25679;-87
2022/01/20 03:09:27;;;;;;;12.98;8.08;;;;;;;1.37;65.90;96759.80;1797922;78;25971;-86
2022/01/20 03:11:53;;;;;;;13.83;8.30;;;;;;;1.36;65.77;96764.79;1797791;78;27343;-84
2022/01/20 03:14:20;;;;;;;17.07;8.60;;;;;;;1.38;65.78;96766.78;1791671;79;25708;-85
2022/01/20 03:16:49;;;;;;;16.10;9.30;;;;;;;1.39;65.86;96767.95;1798014;78;26047;-84
2022/01/20 03:19:16;;;;;;;16.17;8.48;;;;;;;1.42;65.78;96768.12;1797977;79;25704;-86
2022/01/20 03:21:45;;;;;;;12.10;7.83;;;;;;;1.43;65.98;96772.44;1797972;78;25640;-84
2022/01/20 03:24:12;;;;;;;15.10;8.75;;;;;;;1.46;65.84;96770.75;1797934;78;27370;-85
2022/01/20 03:26:38;;;;;;;15.95;8.63;;;;;;;1.49;65.88;96775.73;1791650;79;25786;-85
2022/01/20 03:29:06;;;;;;;14.60;8.60;;;;;;;1.47;65.89;96768.42;1795430;78;25661;-84
2022/01/20 03:31:34;;;;;;;14.33;8.20;;;;;;;1.49;65.85;96769.08;1775685;80;25775;-86
2022/01/20 03:34:01;;;;;;;12.73;7.30;;;;;;;1.49;65.76;96758.45;1775771;80;25737;-84
2022/01/20 03:36:28;;;;;;;14.83;7.90;;;;;;;1.53;65.85;96746.47;1775628;80;26768;-84
2022/01/20 03:38:54;;;;;;;13.28;7.37;;;;;;;1.56;65.75;96744.81;1775599;80;25544;-84
2022/01/20 03:41:21;;;;;;;11.43;7.20;;;;;;;1.57;65.67;96736.33;1775751;80;25657;-84
2022/01/20 03:43:48;;;;;;;12.18;7.37;;;;;;;1.60;65.58;96733.30;1775741;80;25735;-86
2022/01/20 03:46:16;;;;;;;13.53;7.35;;;;;;;1.61;65.54;96715.84;1775611;80;25724;-84
2022/01/20 03:49:06;;;;;;;12.85;7.05;;;;;;;1.61;65.43;96716.34;1775747;80;28183;-85
2022/01/20 03:51:24;;;;;;;13.38;6.85;;;;;;;1.60;65.41;96712.86;1778050;79;25704;-84
2022/01/20 03:53:53;;;;;;;14.35;7.67;;;;;;;1.59;65.43;96712.52;1776143;79;25757;-84
2022/01/20 03:56:22;;;;;;;13.22;7.47;;;;;;;1.59;65.35;96703.21;1775801;80;25742;-83
2022/01/20 03:58:50;;;;;;;12.98;7.55;;;;;;;1.60;65.34;96707.53;1775667;80;25645;-90
2022/01/20 04:01:19;;;;;;;10.50;6.70;;;;;;;1.60;65.35;96686.25;1775799;80;27550;-85
2022/01/20 04:03:46;;;;;;;14.85;7.20;;;;;;;1.60;65.41;96691.57;1775663;80;26280;-89
2022/01/20 04:06:13;;;;;;;11.15;6.75;;;;;;;1.62;65.48;96702.88;1775558;80;26310;-85
2022/01/20 04:08:44;;;;;;;10.85;6.87;;;;;;;1.63;65.49;96698.38;1775710;80;25669;-84
2022/01/20 04:11:15;;;;;;;9.13;6.70;;;;;;;1.61;65.53;96690.57;1775999;80;25829;-86
2022/01/20 04:13:43;;;;;;;12.05;6.78;;;;;;;1.59;65.69;96689.91;1775693;80;27332;-92
2022/01/20 04:16:16;;;;;;;9.93;5.95;;;;;;;1.60;65.65;96684.92;1775593;80;25716;-84
2022/01/20 04:18:55;;;;;;;10.32;6.70;;;;;;;1.61;65.82;96699.88;1775729;80;25759;-86
2022/01/20 04:21:27;;;;;;;10.85;6.50;;;;;;;1.63;65.73;96704.53;1775720;80;25681;-84
2022/01/20 04:23:55;;;;;;;11.55;6.62;;;;;;;1.63;65.77;96692.56;1776026;80;25685;-85
2022/01/20 04:26:24;;;;;;;12.00;5.90;;;;;;;1.63;65.73;96680.59;1775901;80;27370;-87
2022/01/20 04:28:55;;;;;;;12.60;6.95;;;;;;;1.64;65.80;96682.25;1775615;80;25856;-88
2022/01/20 04:31:24;;;;;;;8.55;5.47;;;;;;;1.63;65.80;96669.95;1784485;79;25784;-85
2022/01/20 04:33:51;;;;;;;13.00;7.58;;;;;;;1.64;65.84;96671.61;1772438;79;26223;-88
2022/01/20 04:36:18;;;;;;;10.65;6.42;;;;;;;1.67;65.81;96684.58;1798092;78;25251;-84
2022/01/20 04:38:46;;;;;;;13.53;6.92;;;;;;;1.68;65.85;96665.45;1791947;79;28214;-85
2022/01/20 04:41:13;;;;;;;11.75;6.55;;;;;;;1.67;65.90;96679.25;1797973;79;25667;-85
2022/01/20 04:43:39;;;;;;;10.88;7.05;;;;;;;1.67;65.89;96674.44;1791862;79;26323;-86
2022/01/20 04:46:14;;;;;;;13.88;8.00;;;;;;;1.67;65.98;96665.13;1798149;78;25874;-84
2022/01/20 04:49:04;;;;;;;12.55;7.72;;;;;;;1.66;65.99;96660.30;1799355;78;25788;-84
2022/01/20 04:59:28;;;;;;;13.68;7.92;;;;;;;1.70;66.14;96656.27;1786274;78;25937;-84
2022/01/20 05:01:55;;;;;;;15.50;8.70;;;;;;;1.70;66.24;96652.78;1798123;78;25787;-84
2022/01/20 05:04:23;;;;;;;14.73;8.48;;;;;;;1.71;66.16;96661.09;1791912;79;27498;-83
2022/01/20 05:06:53;;;;;;;13.03;8.33;;;;;;;1.71;66.25;96646.45;1791770;79;26380;-84
2022/01/20 05:09:20;;;;;;;14.38;8.58;;;;;;;1.69;66.13;96647.95;1798059;78;25707;-84
2022/01/20 05:11:58;;;;;;;15.40;9.43;;;;;;;1.67;66.30;96653.98;1798214;78;25787;-86
2022/01/20 05:14:19;;;;;;;14.43;8.68;;;;;;;1.68;66.31;96648.16;1799205;78;25692;-86
2022/01/20 05:16:45;;;;;;;19.67;10.70;;;;;;;1.68;66.26;96637.52;1798099;78;27430;-85
2022/01/20 05:19:12;;;;;;;20.43;10.30;;;;;;;1.67;66.31;96640.68;1791820;79;25746;-85
2022/01/20 05:21:39;;;;;;;21.42;10.93;;;;;;;1.68;66.28;96638.84;1798123;78;25781;-86
2022/01/20 05:24:06;;;;;;;20.72;11.25;;;;;;;1.67;66.37;96640.68;1791889;79;25738;-92
2022/01/20 05:26:33;;;;;;;20.80;11.93;;;;;;;1.66;66.35;96633.70;1791862;79;25815;-85
2022/01/20 05:28:59;;;;;;;19.70;11.25;;;;;;;1.67;66.44;96635.86;1797946;78;27351;-85
2022/01/20 05:31:26;;;;;;;16.42;9.90;;;;;;;1.64;66.43;96617.08;1797756;78;25736;-85
2022/01/20 05:33:53;;;;;;;15.90;10.55;;;;;;;1.64;66.58;96618.41;1798064;78;25727;-86
2022/01/20 05:36:20;;;;;;;16.60;9.35;;;;;;;1.64;66.59;96617.58;1797987;79;25820;-86
2022/01/20 05:38:47;;;;;;;16.42;10.15;;;;;;;1.64;66.55;96612.25;1792045;79;25790;-85
2022/01/20 05:41:13;;;;;;;24.32;12.23;;;;;;;1.64;66.62;96613.59;1798079;78;27353;-84
2022/01/20 05:43:40;;;;;;;26.20;14.85;;;;;;;1.62;66.65;96615.09;1791809;79;25879;-86
2022/01/20 05:46:08;;;;;;;24.12;12.18;;;;;;;1.60;66.65;96610.44;1798016;78;25823;-85
2022/01/20 05:48:36;;;;;;;15.38;9.68;;;;;;;1.62;66.76;96626.23;1791747;79;25677;-85
2022/01/20 05:51:05;;;;;;;16.07;9.05;;;;;;;1.59;66.84;96627.40;1798135;78;25331;-88
2022/01/20 05:53:33;;;;;;;15.83;9.65;;;;;;;1.60;67.16;96636.20;1797955;78;28157;-86
2022/01/20 05:56:00;;;;;;;16.75;9.58;;;;;;;1.67;67.24;96634.03;1797955;78;25818;-86
2022/01/20 05:58:26;;;;;;;13.55;9.23;;;;;;;1.69;67.46;96628.00;1791878;79;25803;-85
2022/01/20 06:00:53;;;;;;;17.75;9.10;;;;;;;1.70;67.51;96628.33;1797768;79;25943;-86
2022/01/20 06:03:38;;;;;;;18.60;9.65;;;;;;;1.75;67.43;96628.65;1798088;79;25640;-85
2022/01/20 06:06:08;;;;;;;16.20;9.20;;;;;;;1.77;67.40;96626.64;1797966;79;28204;-85
2022/01/20 06:08:37;;;;;;;19.17;9.95;;;;;;;1.79;67.33;96617.16;1791990;78;25655;-85
2022/01/20 06:11:04;;;;;;;15.75;8.83;;;;;;;1.74;67.32;96613.69;1797969;78;25777;-86
2022/01/20 06:13:31;;;;;;;23.60;14.05;;;;;;;1.72;67.36;96626.83;1791907;79;25826;-89
2022/01/20 06:15:59;;;;;;;18.67;11.38;;;;;;;1.69;67.33;96624.02;1798025;79;25655;-87
2022/01/20 06:18:26;;;;;;;16.77;11.25;;;;;;;1.67;67.42;96612.74;1791943;79;28159;-85
2022/01/20 06:20:53;;;;;;;17.32;11.00;;;;;;;1.67;67.42;96626.05;1797997;78;25804;-85
2022/01/20 06:23:21;;;;;;;18.37;11.43;;;;;;;1.66;67.40;96621.73;1791905;79;25322;-85
2022/01/20 06:25:48;;;;;;;17.37;10.23;;;;;;;1.67;67.47;96625.22;1791779;79;26474;-85
2022/01/20 06:28:16;;;;;;;18.12;10.05;;;;;;;1.68;67.44;96619.72;1791878;79;25469;-86
2022/01/20 06:30:43;;;;;;;16.65;11.38;;;;;;;1.70;67.36;96630.99;1791796;79;27358;-88
2022/01/20 06:33:10;;;;;;;16.93;10.38;;;;;;;1.69;67.45;96633.86;1797908;78;25735;-85
2022/01/20 06:35:37;;;;;;;19.30;9.88;;;;;;;1.69;67.41;96624.02;1791901;79;26184;-85
2022/01/20 06:38:05;;;;;;;17.98;9.95;;;;;;;1.71;67.51;96618.52;1791744;79;25729;-86
2022/01/20 06:40:32;;;;;;;16.42;8.83;;;;;;;1.72;67.52;96619.68;1791854;79;25656;-84
2022/01/20 06:42:59;;;;;;;16.07;9.30;;;;;;;1.73;67.46;96612.03;1791794;79;27357;-86
2022/01/20 06:45:26;;;;;;;18.23;9.35;;;;;;;1.75;67.48;96610.02;1791722;79;26502;-85
2022/01/20 06:47:53;;;;;;;15.58;8.53;;;;;;;1.72;67.40;96606.38;1798109;79;25665;-85
2022/01/20 06:50:20;;;;;;;20.82;10.00;;;;;;;1.75;67.47;96606.03;1798025;79;26460;-86
2022/01/20 06:52:47;;;;;;;16.15;9.20;;;;;;;1.78;67.46;96600.37;1791858;79;25741;-85
2022/01/20 06:55:15;;;;;;;20.15;10.35;;;;;;;1.79;67.31;96595.38;1798062;78;27353;-87
2022/01/20 06:57:42;;;;;;;21.48;11.68;;;;;;;1.79;67.35;96600.70;1791713;79;25624;-85
2022/01/20 07:00:17;;;;;;;22.13;10.95;;;;;;;1.83;67.35;96597.66;1797695;78;25683;-86
2022/01/20 07:02:45;;;;;;;18.73;10.28;;;;;;;1.85;67.36;96597.81;1791140;79;25702;-85
2022/01/20 07:05:15;;;;;;;14.78;9.18;;;;;;;1.87;67.33;96605.62;1791912;79;25779;-84
2022/01/20 07:07:42;;;;;;;15.45;9.55;;;;;;;1.87;67.22;96602.96;1791804;79;28153;-85
2022/01/20 07:10:12;;;;;;;15.88;9.73;;;;;;;1.86;67.16;96601.30;1791816;79;25633;-84
2022/01/20 07:12:44;;;;;;;16.37;10.15;;;;;;;1.86;67.17;96599.98;1800050;78;25695;-85
2022/01/20 07:15:09;;;;;;;19.40;10.65;;;;;;;1.83;67.21;96590.50;1787867;78;25633;-85
2022/01/20 07:17:36;;;;;;;22.13;13.25;;;;;;;1.85;67.21;96598.31;1787786;79;25721;-86
2022/01/20 07:20:04;;;;;;;23.27;12.35;;;;;;;1.88;67.17;96597.97;1787719;79;27313;-85
2022/01/20 07:22:30;;;;;;;40.38;18.70;;;;;;;1.86;67.11;96592.82;1787561;79;25757;-85
2022/01/20 07:24:57;;;;;;;23.60;13.15;;;;;;;1.89;67.15;96593.80;1787677;79;25765;-85
2022/01/20 07:27:24;;;;;;;24.37;13.10;;;;;;;1.93;67.07;96590.30;1793402;78;25757;-86
2022/01/20 07:29:52;;;;;;;14.35;8.30;;;;;;;1.96;67.02;96589.92;1752116;79;25735;-83
2022/01/20 07:32:19;;;;;;;17.60;10.98;;;;;;;1.98;66.95;96585.25;1764502;79;27379;-85
2022/01/20 07:34:46;;;;;;;17.20;9.48;;;;;;;2.00;66.96;96584.58;1747532;81;25847;-86
2022/01/20 07:37:12;;;;;;;18.95;10.30;;;;;;;2.02;66.89;96587.89;1734383;82;25864;-85
2022/01/20 07:39:41;;;;;;;15.40;9.25;;;;;;;2.03;66.90;96586.89;1760437;80;25743;-87
2022/01/20 07:42:08;;;;;;;13.80;8.60;;;;;;;2.06;66.87;96586.51;1773629;79;25695;-84
2022/01/20 07:44:35;;;;;;;16.50;10.13;;;;;;;2.07;66.85;96590.33;1791818;80;27280;-82
2022/01/20 07:47:03;;;;;;;23.65;11.63;;;;;;;2.09;66.86;96591.48;1791481;79;25814;-85
2022/01/20 07:49:29;;;;;;;18.98;10.95;;;;;;;2.10;66.85;96597.97;1791826;79;25820;-86
2022/01/20 07:51:56;;;;;;;15.95;10.00;;;;;;;2.11;66.81;96599.63;1791819;79;26341;-85
2022/01/20 07:54:22;;;;;;;22.77;12.93;;;;;;;2.13;66.83;96601.61;1777321;79;26208;-87
2022/01/20 07:56:49;;;;;;;18.52;11.90;;;;;;;2.16;66.81;96587.13;1766484;81;27338;-85
2022/01/20 07:59:17;;;;;;;21.42;12.53;;;;;;;2.19;66.80;96598.72;1734364;81;25749;-85
2022/01/20 08:01:43;;;;;;;26.87;12.88;;;;;;;2.21;66.79;96597.22;1760151;80;25690;-85
2022/01/20 08:04:10;;;;;;;26.33;14.18;;;;;;;2.23;66.77;96598.70;1760479;80;25872;-84
2022/01/20 08:06:37;;;;;;;22.98;12.23;;;;;;;2.25;66.69;96598.02;1760556;80;25740;-84
2022/01/20 08:09:04;;;;;;;27.65;14.70;;;;;;;2.28;66.72;96604.33;1760508;80;27360;-84
2022/01/20 08:11:31;;;;;;;20.52;11.28;;;;;;;2.31;66.66;96597.29;1760309;81;25693;-85
2022/01/20 08:13:58;;;;;;;23.98;13.45;;;;;;;2.35;66.67;96599.92;1760639;81;25658;-86
2022/01/20 08:16:24;;;;;;;29.48;14.23;;;;;;;2.38;66.63;96596.09;1766540;81;25768;-84
2022/01/20 08:18:53;;;;;;;25.32;12.73;;;;;;;2.40;66.61;96596.23;1734605;82;25275;-86
2022/01/20 08:21:21;;;;;;;20.68;10.72;;;;;;;2.42;66.60;96602.19;1734512;82;28041;-86
2022/01/20 08:23:47;;;;;;;15.58;7.97;;;;;;;2.42;66.53;96592.86;1760256;80;25750;-86
2022/01/20 08:26:14;;;;;;;20.95;11.05;;;;;;;2.43;66.51;96587.86;1760585;80;25657;-87
2022/01/20 08:28:42;;;;;;;21.10;10.35;;;;;;;2.47;66.52;96593.66;1760584;80;27036;-87
2022/01/20 08:31:09;;;;;;;24.72;11.75;;;;;;;2.49;66.45;96595.14;1766368;79;25655;-86
2022/01/20 08:33:36;;;;;;;25.92;12.75;;;;;;;2.52;66.52;96585.47;1734389;82;27424;-89
2022/01/20 08:36:03;;;;;;;26.60;14.00;;;;;;;2.60;66.46;96590.38;1734542;82;25756;-87
2022/01/20 08:38:30;;;;;;;30.20;14.58;;;;;;;2.62;66.37;96569.22;1734456;82;25923;-88
2022/01/20 08:40:57;;;;;;;31.30;14.70;;;;;;;2.65;66.33;96565.36;1760614;80;25712;-87
2022/01/20 08:43:24;;;;;;;34.70;15.83;;;;;;;2.67;66.27;96552.66;1760583;80;25844;-87
2022/01/20 08:45:51;;;;;;;40.78;18.85;;;;;;;2.69;66.24;96541.32;1760595;80;27378;-86
2022/01/20 08:48:18;;;;;;;29.55;14.13;;;;;;;2.71;66.24;96531.31;1760476;80;25785;-90
2022/01/20 08:50:45;;;;;;;27.62;13.93;;;;;;;2.73;66.19;96531.45;1760681;80;25726;-87
2022/01/20 08:53:12;;;;;;;21.52;11.93;;;;;;;2.73;66.15;96529.30;1766458;81;25895;-90
2022/01/20 08:55:39;;;;;;;21.35;10.63;;;;;;;2.74;66.14;96540.28;1760685;80;25240;-88
2022/01/20 08:58:06;;;;;;;25.08;14.33;;;;;;;2.70;66.09;96551.80;1760554;80;26787;-87
2022/01/20 09:00:36;;;;;;;22.87;11.80;;;;;;;2.63;66.29;96564.72;1760391;81;25773;-85
2022/01/20 09:03:04;;;;;;;22.93;10.48;;;;;;;2.55;66.60;96566.94;1766688;81;25250;-84
2022/01/20 09:05:31;;;;;;;23.12;10.93;;;;;;;2.48;66.87;96568.18;1760606;80;26078;-85
2022/01/20 09:07:57;;;;;;;37.03;15.45;;;;;;;2.39;67.23;96584.42;1766561;81;25752;-86
2022/01/20 09:10:24;;;;;;;36.50;15.70;;;;;;;2.25;67.55;96574.56;1760559;80;27350;-83
2022/01/20 09:15:39;;;;;;;12.68;6.72;;;;;;;2.17;68.10;96610.08;1766303;81;25757;-85
2022/01/20 09:18:09;;;;;;;8.50;4.60;;;;;;;2.04;68.11;96597.36;1734574;82;25787;-86
2022/01/20 09:20:39;;;;;;;6.58;2.83;;;;;;;1.86;68.10;96594.66;1734638;82;25714;-86
2022/01/20 09:23:07;;;;;;;8.50;4.00;;;;;;;1.68;68.42;96588.30;1734584;82;28188;-92
2022/01/20 09:25:35;;;;;;;4.75;3.45;;;;;;;1.50;68.97;96596.53;1760671;80;25311;-85
2022/01/20 09:28:03;;;;;;;9.50;4.47;;;;;;;1.36;69.36;96579.98;1796192;79;25712;-85
2022/01/20 09:30:30;;;;;;;5.70;3.83;;;;;;;1.27;69.89;96585.02;1796469;79;25695;-87
2022/01/20 09:35:35;;;;;;;7.95;4.50;;;;;;;1.21;70.44;96573.77;1793352;79;27577;-87
2022/01/20 09:38:03;;;;;;;7.45;4.45;;;;;;;1.24;70.88;96568.91;1768797;79;26312;-85
2022/01/20 09:40:33;;;;;;;10.90;5.75;;;;;;;1.27;70.89;96565.08;1780128;79;26347;-85
2022/01/20 09:43:01;;;;;;;10.40;6.08;;;;;;;1.24;70.96;96563.59;1791800;79;25767;-85
2022/01/20 09:45:28;;;;;;;7.67;4.20;;;;;;;1.25;71.04;96544.48;1796766;79;25637;-86
2022/01/20 09:47:55;;;;;;;13.32;8.00;;;;;;;1.25;71.17;96543.98;1797170;78;27338;-85
2022/01/20 09:50:25;;;;;;;8.48;5.72;;;;;;;1.32;71.24;96549.45;1797897;78;25767;-84
2022/01/20 09:52:54;;;;;;;13.18;7.47;;;;;;;1.39;71.41;96543.74;1797378;78;25791;-84
2022/01/20 09:55:21;;;;;;;15.45;7.30;;;;;;;1.44;71.74;96532.09;1797996;78;25805;-84
2022/01/20 09:57:48;;;;;;;10.70;6.60;;;;;;;1.50;71.88;96522.56;1798031;78;25775;-84
2022/01/20 10:00:17;;;;;;;10.72;6.90;;;;;;;1.53;71.92;96500.44;1770407;79;57542;-83
2022/01/20 10:02:58;;;;;;;22.05;11.53;;;;;;;1.61;72.07;96496.88;1796602;79;25740;-83
2022/01/20 10:05:39;;;;;;;31.62;14.87;;;;;;;1.68;72.10;96481.38;1796136;79;26025;-83
2022/01/20 10:08:21;;;;;;;39.15;18.02;;;;;;;1.84;71.94;96482.23;1797826;79;25681;-83
2022/01/20 10:10:58;;;;;;;24.05;12.63;;;;;;;2.02;71.85;96479.59;1766654;79;25765;-83
2022/01/20 10:13:30;;;;;;;22.20;11.48;;;;;;;2.19;71.55;96480.23;1791806;79;27398;-84
2022/01/20 10:16:11;;;;;;;23.12;14.15;;;;;;;2.49;71.75;96473.94;1792088;79;25742;-83
2022/01/20 10:18:57;;;;;;;17.73;10.63;;;;;;;2.83;71.72;96460.03;1791909;80;25850;-82
2022/01/20 10:21:31;;;;;;;19.20;11.60;;;;;;;3.24;71.62;96442.99;1791899;79;26366;-82
2022/01/20 10:24:11;;;;;;;21.75;12.30;;;;;;;3.55;71.18;96432.50;1791541;79;25805;-82
2022/01/20 10:26:40;;;;;;;25.62;14.85;;;;;;;3.75;70.97;96424.16;1791896;79;28186;-82
2022/01/20 10:29:12;;;;;;;20.70;12.75;;;;;;;4.11;70.98;96436.55;1791816;79;25658;-81
2022/01/20 10:31:51;;;;;;;13.65;8.50;;;;;;;4.53;70.74;96450.30;1791722;79;25641;-81
2022/01/20 10:34:37;;;;;;;12.78;8.48;;;;;;;4.85;70.35;96450.16;1787404;79;25725;-82
2022/01/20 10:37:13;;;;;;;14.03;7.85;;;;;;;5.22;69.94;96440.32;1791173;79;25729;-81
2022/01/20 10:39:42;;;;;;;10.75;5.97;;;;;;;5.59;69.37;96451.02;1791898;79;28183;-80
2022/01/20 10:42:24;;;;;;;5.15;3.62;;;;;;;5.62;68.05;96437.23;1791652;79;25713;-79
2022/01/20 10:44:54;;;;;;;15.53;9.18;;;;;;;5.73;67.30;96437.14;1791431;80;25701;-81
2022/01/20 10:47:25;;;;;;;13.15;8.25;;;;;;;6.04;66.98;96439.23;1791861;79;25770;-80
2022/01/20 10:49:53;;;;;;;6.63;4.47;;;;;;;6.22;66.78;96431.92;1792178;79;25980;-81
2022/01/20 10:52:23;;;;;;;14.03;8.28;;;;;;;6.19;65.83;96416.25;1791894;79;27357;-81
2022/01/20 10:54:55;;;;;;;11.83;7.55;;;;;;;6.13;65.71;96420.09;1791870;79;25617;-81
2022/01/20 10:57:34;;;;;;;10.30;6.67;;;;;;;5.98;65.07;96415.45;1791644;79;34868;-83
2022/01/20 11:00:07;;;;;;;13.03;7.92;;;;;;;5.59;64.83;96401.48;1770214;79;26475;-82
2022/01/20 11:02:34;;;;;;;17.05;8.95;;;;;;;5.50;64.97;96393.87;1766510;80;26090;-82
2022/01/20 11:05:01;;;;;;;12.15;6.62;;;;;;;5.38;65.09;96386.44;1766436;79;27366;-85
2022/01/20 11:07:28;;;;;;;10.28;6.00;;;;;;;5.26;64.96;96392.59;1766281;79;25644;-81
2022/01/20 11:10:00;;;;;;;5.78;3.50;;;;;;;5.00;64.18;96378.63;1766325;79;25772;-82
2022/01/20 11:12:24;;;;;;;5.28;3.52;;;;;;;4.68;63.61;96381.00;1766927;78;25827;-82
2022/01/20 11:14:52;;;;;;;9.03;3.45;;;;;;;4.48;63.22;96369.38;1766397;79;25473;-82
2022/01/20 11:17:23;;;;;;;4.72;2.87;;;;;;;4.41;63.19;96370.38;1766405;79;27365;-83
2022/01/20 11:19:51;;;;;;;4.53;2.05;;;;;;;4.32;62.53;96380.41;1759310;80;25777;-83
2022/01/20 11:22:21;;;;;;;7.00;2.90;;;;;;;4.21;62.13;96376.96;1766403;79;25861;-82
2022/01/20 11:25:06;;;;;;;8.63;3.10;;;;;;;4.08;61.38;96362.19;1760467;81;27179;-83
2022/01/20 11:27:42;;;;;;;8.25;4.12;;;;;;;3.99;61.39;96356.16;1760460;80;25298;-83
2022/01/20 11:30:26;;;;;;;7.50;3.20;;;;;;;3.93;61.03;96344.42;1765943;79;27378;-82
2022/01/20 11:33:12;;;;;;;7.17;3.47;;;;;;;3.90;60.79;96322.63;1755691;81;26050;-84
2022/01/20 11:35:49;;;;;;;9.15;3.62;;;;;;;3.88;60.56;96321.48;1744895;81;25763;-84
2022/01/20 11:38:23;;;;;;;7.95;2.67;;;;;;;3.84;60.21;96333.59;1745026;81;25726;-90
2022/01/20 11:40:57;;;;;;;8.30;2.40;;;;;;;3.78;59.77;96322.86;1744988;81;25650;-84
2022/01/20 11:43:48;;;;;;;7.97;3.08;;;;;;;3.70;59.48;96322.50;1744964;81;27375;-85
2022/01/20 11:46:21;;;;;;;6.83;2.80;;;;;;;3.63;58.92;96310.94;1745084;81;25807;-87
2022/01/20 11:49:02;;;;;;;10.15;4.17;;;;;;;3.55;58.70;96305.25;1715265;81;25714;-83
2022/01/20 11:51:58;;;;;;;11.75;3.92;;;;;;;3.58;58.78;96308.05;1720317;82;25680;-84
2022/01/20 11:54:40;;;;;;;9.10;3.50;;;;;;;3.59;58.73;96300.36;1720242;82;25696;-86
2022/01/20 11:57:17;;;;;;;5.12;3.20;;;;;;;3.58;58.78;96317.39;1726004;83;27420;-89
2022/01/20 11:59:50;;;;;;;7.97;4.00;;;;;;;3.56;58.73;96296.73;1725224;82;25791;-86
2022/01/20 12:02:32;;;;;;;9.88;5.08;;;;;;;3.47;58.55;96308.58;1745199;81;25726;-85
2022/01/20 12:05:02;;;;;;;5.42;2.87;;;;;;;3.40;58.47;96311.19;1745163;81;25752;-86
2022/01/20 12:07:35;;;;;;;7.90;3.70;;;;;;;3.35;58.23;96300.80;1746055;81;25675;-85
2022/01/20 12:10:19;;;;;;;8.25;3.10;;;;;;;3.24;58.33;96305.64;1776524;79;28339;-85
2022/01/20 12:12:45;;;;;;;7.80;3.22;;;;;;;3.17;58.10;96320.73;1774823;80;25760;-86
2022/01/20 12:15:17;;;;;;;9.03;2.85;;;;;;;3.06;58.16;96322.59;1775855;80;25677;-85
2022/01/20 12:17:56;;;;;;;9.70;2.80;;;;;;;2.99;58.08;96347.03;1776225;79;25856;-84
2022/01/20 12:20:24;;;;;;;4.17;1.32;;;;;;;2.92;58.40;96417.27;1775846;80;25737;-89
2022/01/20 12:22:54;;;;;;;7.67;1.30;;;;;;;2.34;61.10;96496.23;1775771;80;28179;-87
2022/01/20 12:25:27;;;;;;;2.70;1.15;;;;;;;1.05;62.68;96500.23;1775844;80;25646;-83
2022/01/20 12:28:08;;;;;;;3.60;1.50;;;;;;;0.21;63.60;96495.56;1775828;80;25796;-87
2022/01/20 12:30:40;;;;;;;3.62;1.42;;;;;;;-0.28;64.82;96473.58;1775527;80;26548;-85
2022/01/20 12:33:14;;;;;;;2.17;1.50;;;;;;;-0.54;65.74;96485.17;1753010;79;25641;-84
2022/01/20 12:35:48;;;;;;;7.55;2.33;;;;;;;-0.68;66.25;96477.87;1792101;80;27416;-83
2022/01/20 12:38:26;;;;;;;4.15;1.95;;;;;;;-0.79;67.32;96471.56;1788165;79;25938;-85
2022/01/20 12:41:13;;;;;;;5.20;2.55;;;;;;;-0.85;67.26;96471.73;1784029;78;25241;-85
2022/01/20 12:43:55;;;;;;;8.38;3.90;;;;;;;-0.79;67.97;96470.24;1795794;79;25655;-84